ADDS TAF Board (Experimental) INFO Settings
IDs:

KMCI - Kansas City Intl, MO, US

Issued at 0520 UTC 01 Aug 2015
Updated at: 0948 UTC 01 Aug 2015
Time0853Z 01/10Z 01/11Z 01/12Z 01/13Z 01/14Z 01/15Z 01/16Z 01/17Z 01/18Z 01/19Z 01/20Z 01/21Z 01/22Z
Type OBS PRVL PRVL PRVL PRVL PRVL PRVL PRVL PRVL PRVL PRVL PRVL PRVL PRVL
VIS 10 >6 >6 >6 >6 >6 >6 >6 >6 >6 >6 >6 >6 >6
CIG -- -- -- -- -- -- -- -- -- -- -- -- -- --
Cover CLR SCT SCT SCT SCT SCT SCT SCT SCT SCT SCT SCT SCT SCT
FltCat VFR VFR VFR VFR VFR VFR VFR VFR VFR VFR VFR VFR VFR VFR
WX -- -- -- -- -- -- -- -- -- -- -- -- -- --
WDir VRB 220 220 220 220 220 220 220 220 220 220 200 200 200
WSpd 0 5 5 5 5 5 5 5 5 5 5 5 5 5
WGst -- -- -- -- -- -- -- -- -- -- -- -- -- --
R01/19
XWnd VRB 2 2 2 2 2 2 2 2 2 2 1 1 1
HWnd VRB -4 -4 -4 -4 -4 -4 -4 -4 -4 -4 -5 -5 -5
R09/27
XWnd VRB -4 -4 -4 -4 -4 -4 -4 -4 -4 -4 -5 -5 -5
HWnd VRB -3 -3 -3 -3 -3 -3 -3 -3 -3 -3 -1 -1 -1

NOTE: TEMPO conditions in [brackets]. Keep in mind TEMPO conditions might be better (lower impact) than prevailing conditions.

Raw TAF
KMCI 010520Z 0106/0206 22005KT P6SM SCT250
  FM012000 20005KT P6SM SCT060


Raw METAR
KMCI 010853Z 00000KT 10SM CLR 23/21 A3006 RMK AO2 SLP166 T02280206 55007 $
KMCI 010753Z 15005KT 10SM CLR 22/20 A3005 RMK AO2 SLP165 T02220200 $
KMCI 010653Z 20007KT 10SM SCT130 SCT250 23/20 A3006 RMK AO2 SLP167 T02280200 $

METAR Board
Radar Display
Forecast Discussion

TAF Board Legend

Potential Impact
Threat None Slight Moderate High
Visibility (sm) ≥5.1 5.1>X≥3 3>X≥1 <1
Ceiling (100 ft) ≥30.1 30.1>X≥10 10>X≥5 <5
Wind Speed (kt) <10 10≤X<20 20≤X<30 ≥30
Wind Gust (kt) <15 15≤X<25 25≤X<35 ≥35
Weather No Wx Reported VCTS,-TS,-FZRA,SN TS,FZRA +TS,+FZRA,+SN